Time;durP1;ratioP1;P1;durP2;ratioP2;P2;SDS_P1;SDS_P2;PMS_P1;PMS_P2;Temp;Humidity;BMP_temperature;BMP_pressure;BME280_temperature;BME280_humidity;BME280_pressure;Samples;Min_cycle;Max_cycle;Signal;HPM_P1;HPM_P2
2021/10/13 00:01:02;;;;;;;43.20;9.05;;;14.00;90.10;;;;;;5024500;28;20034;-61
2021/10/13 00:03:27;;;;;;;38.42;8.75;;;14.10;90.20;;;;;;5024711;28;20026;-61
2021/10/13 00:05:53;;;;;;;30.88;8.13;;;13.90;90.10;;;;;;5024176;28;20045;-61
2021/10/13 00:08:18;;;;;;;37.85;8.60;;;13.90;90.10;;;;;;5024447;28;20079;-61
2021/10/13 00:10:44;;;;;;;35.50;8.70;;;13.90;90.10;;;;;;5024625;28;20037;-61
2021/10/13 00:13:10;;;;;;;23.30;7.18;;;13.90;90.10;;;;;;5007688;28;20025;-61
2021/10/13 00:15:36;;;;;;;27.70;7.72;;;13.90;90.10;;;;;;5024303;28;20030;-61
2021/10/13 00:18:02;;;;;;;35.75;8.25;;;13.90;90.10;;;;;;5007721;28;20025;-61
2021/10/13 00:20:27;;;;;;;33.72;8.20;;;13.90;90.10;;;;;;5006561;28;20030;-61
2021/10/13 00:22:53;;;;;;;35.70;7.85;;;13.90;90.10;;;;;;5023660;28;20021;-61
2021/10/13 00:25:18;;;;;;;25.45;6.13;;;13.90;90.10;;;;;;5027339;28;20430;-61
2021/10/13 00:27:44;;;;;;;23.50;5.93;;;13.80;90.10;;;;;;5024926;28;20029;-61
2021/10/13 00:30:09;;;;;;;28.00;6.60;;;13.80;90.10;;;;;;5025617;28;20041;-61
2021/10/13 00:32:35;;;;;;;22.73;6.40;;;13.90;90.10;;;;;;5025536;28;20024;-61
2021/10/13 00:35:00;;;;;;;22.50;5.90;;;13.80;90.10;;;;;;5006604;28;20041;-61
2021/10/13 00:37:26;;;;;;;21.63;5.63;;;13.80;90.10;;;;;;5006151;28;20037;-62
2021/10/13 00:39:51;;;;;;;19.75;6.18;;;13.70;90.10;;;;;;5025209;28;20508;-61
2021/10/13 00:42:17;;;;;;;23.77;6.57;;;13.80;90.10;;;;;;5027408;28;20053;-61
2021/10/13 00:44:42;;;;;;;21.13;6.47;;;13.70;90.10;;;;;;5025295;28;20480;-61
2021/10/13 00:47:08;;;;;;;15.45;5.93;;;13.90;90.10;;;;;;5021254;28;20715;-62
2021/10/13 00:49:33;;;;;;;21.98;5.82;;;13.70;90.10;;;;;;5022595;28;20022;-62
2021/10/13 00:52:00;;;;;;;16.90;4.95;;;13.70;90.20;;;;;;5023237;28;20304;-61
2021/10/13 00:54:25;;;;;;;15.98;5.10;;;13.70;90.10;;;;;;5022062;28;20522;-61
2021/10/13 00:56:51;;;;;;;24.38;5.55;;;13.70;90.20;;;;;;5024795;28;20042;-61
2021/10/13 00:59:16;;;;;;;19.30;5.82;;;13.70;90.20;;;;;;5020871;28;20041;-61
2021/10/13 01:01:58;;;;;;;16.83;5.68;;;13.70;90.20;;;;;;5024000;28;20071;-61
2021/10/13 01:04:36;;;;;;;17.52;5.97;;;13.70;90.30;;;;;;5004219;28;20133;-61
2021/10/13 01:07:36;;;;;;;14.00;4.93;;;13.70;90.20;;;;;;5024827;28;20504;-61
2021/10/13 01:10:20;;;;;;;19.45;6.35;;;13.70;90.20;;;;;;5022852;28;20124;-61
2021/10/13 01:12:53;;;;;;;13.85;4.65;;;13.70;90.20;;;;;;5025198;28;20048;-61
2021/10/13 01:15:35;;;;;;;15.32;5.20;;;13.60;90.20;;;;;;5005910;28;20199;-62
2021/10/13 01:18:13;;;;;;;19.63;5.07;;;13.60;90.20;;;;;;5006101;28;20034;-61
2021/10/13 01:21:06;;;;;;;18.85;5.97;;;13.60;90.20;;;;;;5006752;28;20039;-61
2021/10/13 01:24:13;;;;;;;15.38;5.25;;;13.60;90.20;;;;;;5024695;28;20552;-61
2021/10/13 01:26:59;;;;;;;13.65;5.03;;;13.60;90.20;;;;;;4993529;28;20052;-60
2021/10/13 01:29:25;;;;;;;14.90;5.22;;;13.60;90.20;;;;;;5020112;28;20068;-60
2021/10/13 01:31:52;;;;;;;14.00;4.95;;;13.60;90.30;;;;;;5006687;28;20045;-61
2021/10/13 01:34:25;;;;;;;16.73;5.10;;;13.60;90.30;;;;;;5020530;28;20496;-60
2021/10/13 01:37:11;;;;;;;13.35;5.80;;;13.60;90.30;;;;;;5005607;28;20132;-60
2021/10/13 01:39:40;;;;;;;14.73;5.80;;;13.50;90.40;;;;;;5021013;28;20029;-60
2021/10/13 01:42:05;;;;;;;17.60;6.13;;;13.50;90.40;;;;;;5005352;28;20147;-60
2021/10/13 01:44:32;;;;;;;12.13;5.93;;;13.50;90.40;;;;;;5021737;28;20566;-61
2021/10/13 01:46:57;;;;;;;14.20;6.57;;;13.50;90.50;;;;;;5022695;28;20045;-61
2021/10/13 01:49:24;;;;;;;15.00;6.30;;;13.50;90.50;;;;;;5005492;28;20064;-61
2021/10/13 01:51:49;;;;;;;13.02;5.68;;;13.50;90.50;;;;;;5006310;28;20100;-62
2021/10/13 01:54:15;;;;;;;13.52;5.38;;;13.50;90.60;;;;;;5019723;28;20128;-63
2021/10/13 01:56:41;;;;;;;12.85;5.20;;;13.50;90.60;;;;;;5020824;28;20034;-61
2021/10/13 01:59:08;;;;;;;12.13;5.13;;;13.50;90.60;;;;;;5009306;28;20041;-61
2021/10/13 02:01:34;;;;;;;14.35;4.93;;;13.40;90.60;;;;;;5021907;28;20514;-61
2021/10/13 02:04:05;;;;;;;12.02;4.85;;;13.40;90.70;;;;;;5006208;28;20083;-62
2021/10/13 02:06:31;;;;;;;11.45;4.88;;;13.40;90.70;;;;;;5004839;28;20595;-61
2021/10/13 02:08:56;;;;;;;11.00;4.30;;;13.40;90.70;;;;;;5002945;28;20029;-61
2021/10/13 02:11:26;;;;;;;12.13;5.22;;;13.40;90.70;;;;;;5004592;28;20540;-61
2021/10/13 02:13:52;;;;;;;12.30;4.80;;;13.40;90.70;;;;;;5010812;28;20025;-60
2021/10/13 02:16:18;;;;;;;7.68;4.47;;;13.40;90.70;;;;;;5025713;28;20036;-61
2021/10/13 02:18:43;;;;;;;7.82;4.30;;;13.40;90.80;;;;;;5025488;28;20025;-60
2021/10/13 02:21:09;;;;;;;11.27;4.57;;;13.40;90.80;;;;;;5024193;28;20037;-61
2021/10/13 02:23:35;;;;;;;10.13;3.80;;;13.40;90.80;;;;;;5007921;28;20126;-61
2021/10/13 02:26:04;;;;;;;8.05;4.35;;;13.30;90.80;;;;;;5040399;28;20030;-61
2021/10/13 02:28:39;;;;;;;7.97;4.43;;;13.40;90.90;;;;;;5026303;28;20029;-61
2021/10/13 02:31:04;;;;;;;11.55;4.03;;;13.30;90.90;;;;;;5025237;28;20021;-61
2021/10/13 02:33:30;;;;;;;10.85;4.63;;;13.30;90.90;;;;;;5026621;28;20610;-61
2021/10/13 02:35:56;;;;;;;8.23;3.63;;;13.30;90.90;;;;;;5024756;28;20072;-61
2021/10/13 02:38:22;;;;;;;10.05;4.47;;;13.30;90.90;;;;;;5026662;28;20025;-61
2021/10/13 02:40:47;;;;;;;9.48;4.78;;;13.30;90.90;;;;;;5027096;28;20034;-61
2021/10/13 02:43:13;;;;;;;10.52;4.65;;;13.30;91.00;;;;;;5025405;28;20695;-61
2021/10/13 02:45:40;;;;;;;7.45;4.65;;;13.30;91.00;;;;;;5008417;28;20041;-61
2021/10/13 02:48:12;;;;;;;9.70;4.30;;;13.30;91.00;;;;;;5007979;28;20052;-61
2021/10/13 02:50:56;;;;;;;6.65;4.07;;;13.30;91.00;;;;;;4990402;28;20359;-61
2021/10/13 02:53:26;;;;;;;9.32;5.13;;;13.30;91.10;;;;;;5027107;28;20021;-61
2021/10/13 02:55:53;;;;;;;9.77;3.75;;;13.30;91.10;;;;;;4991851;28;20392;-61
2021/10/13 02:58:22;;;;;;;8.52;3.90;;;13.20;91.10;;;;;;5024700;28;20033;-61
2021/10/13 03:00:50;;;;;;;6.43;3.90;;;13.20;91.10;;;;;;5024096;28;20033;-61
2021/10/13 03:03:19;;;;;;;8.40;4.15;;;13.20;91.10;;;;;;5009008;28;20021;-61
2021/10/13 03:05:44;;;;;;;9.52;4.05;;;13.20;91.10;;;;;;5023974;28;20041;-61
2021/10/13 03:08:11;;;;;;;8.82;4.05;;;13.20;91.10;;;;;;5008102;28;20370;-61
2021/10/13 03:10:37;;;;;;;9.13;3.67;;;13.20;91.10;;;;;;5006494;28;20024;-61
2021/10/13 03:13:03;;;;;;;8.05;3.80;;;13.30;91.10;;;;;;5023504;28;20034;-60
2021/10/13 03:15:29;;;;;;;7.60;3.70;;;13.20;91.10;;;;;;5023417;28;20034;-61
2021/10/13 03:17:56;;;;;;;9.32;4.03;;;13.20;91.10;;;;;;5023931;28;20029;-61
2021/10/13 03:20:22;;;;;;;5.38;3.70;;;13.20;91.10;;;;;;5024913;28;20395;-61
2021/10/13 03:22:48;;;;;;;7.45;3.75;;;13.20;91.10;;;;;;5019315;28;20029;-61
2021/10/13 03:25:25;;;;;;;7.85;3.15;;;13.20;91.10;;;;;;5019443;28;20237;-61
2021/10/13 03:27:50;;;;;;;9.00;3.92;;;13.20;91.10;;;;;;5021837;28;20034;-61
2021/10/13 03:30:16;;;;;;;7.75;3.65;;;13.20;91.20;;;;;;5006324;28;20037;-62
2021/10/13 03:32:46;;;;;;;5.80;3.08;;;13.20;91.20;;;;;;5007475;28;20022;-61
2021/10/13 03:35:29;;;;;;;8.18;3.63;;;13.20;91.20;;;;;;5005614;28;20044;-61
2021/10/13 03:37:55;;;;;;;7.55;4.22;;;13.10;91.20;;;;;;5020860;28;20021;-61
2021/10/13 03:40:21;;;;;;;5.25;3.53;;;13.10;91.30;;;;;;5004153;28;20141;-61
2021/10/13 03:42:47;;;;;;;5.80;3.60;;;13.10;91.30;;;;;;5022525;28;20037;-61
2021/10/13 03:45:14;;;;;;;5.03;3.60;;;13.10;91.30;;;;;;5024624;28;20178;-61
2021/10/13 03:47:40;;;;;;;8.00;4.13;;;13.10;91.40;;;;;;5023299;28;20039;-61
2021/10/13 03:50:05;;;;;;;6.22;3.97;;;13.10;91.40;;;;;;5005864;28;20026;-61
2021/10/13 03:52:31;;;;;;;7.13;3.85;;;13.10;91.40;;;;;;5009044;28;20148;-60
2021/10/13 03:54:56;;;;;;;5.93;3.78;;;13.10;91.40;;;;;;5021073;28;20080;-61
2021/10/13 03:57:22;;;;;;;7.60;3.83;;;13.10;91.40;;;;;;5025687;28;20123;-61
2021/10/13 03:59:47;;;;;;;7.18;3.92;;;13.10;91.40;;;;;;5024459;28;20504;-61
2021/10/13 04:02:14;;;;;;;4.68;3.55;;;13.10;91.40;;;;;;5024536;28;20576;-61
2021/10/13 04:04:39;;;;;;;6.72;3.63;;;13.10;91.30;;;;;;5023910;28;20029;-61
2021/10/13 04:07:05;;;;;;;6.40;3.53;;;13.00;91.30;;;;;;5024431;28;20044;-61
2021/10/13 04:09:30;;;;;;;6.90;4.07;;;13.10;91.30;;;;;;5022787;28;20056;-61
2021/10/13 04:11:56;;;;;;;6.50;3.20;;;13.00;91.30;;;;;;5026915;28;20507;-61
2021/10/13 04:14:21;;;;;;;5.25;3.53;;;13.10;91.30;;;;;;5024400;28;20048;-61
2021/10/13 04:16:47;;;;;;;8.02;4.55;;;13.00;91.30;;;;;;5007203;28;20063;-61
2021/10/13 04:19:12;;;;;;;7.18;5.18;;;13.00;91.30;;;;;;5023882;28;20044;-61
2021/10/13 04:21:38;;;;;;;8.68;4.75;;;13.00;91.30;;;;;;5025221;28;21417;-61
2021/10/13 04:24:03;;;;;;;8.90;4.25;;;13.00;91.30;;;;;;5023356;28;20076;-61
2021/10/13 04:26:29;;;;;;;5.50;4.20;;;13.00;91.30;;;;;;5024080;28;20431;-61
2021/10/13 04:28:55;;;;;;;7.25;5.07;;;13.00;91.30;;;;;;5025397;28;20038;-61
2021/10/13 04:31:20;;;;;;;6.85;5.00;;;13.00;91.30;;;;;;5007260;28;20033;-61
2021/10/13 04:33:46;;;;;;;11.05;5.00;;;12.90;91.20;;;;;;5023392;28;20458;-61
2021/10/13 04:36:11;;;;;;;6.55;4.13;;;13.00;91.30;;;;;;5024934;28;20025;-61
2021/10/13 04:38:37;;;;;;;6.82;4.70;;;12.90;91.20;;;;;;5025191;28;20507;-61
2021/10/13 04:41:03;;;;;;;7.78;4.57;;;12.90;91.30;;;;;;5021496;28;20053;-61
2021/10/13 04:43:28;;;;;;;7.55;4.57;;;13.00;91.30;;;;;;5024907;28;20140;-61
2021/10/13 04:45:54;;;;;;;6.93;4.30;;;12.90;91.30;;;;;;5024856;28;20125;-61
2021/10/13 04:48:19;;;;;;;5.22;3.88;;;12.90;91.30;;;;;;5023674;28;20430;-61
2021/10/13 04:50:45;;;;;;;7.97;4.18;;;12.90;91.30;;;;;;5025072;28;20044;-61
2021/10/13 04:53:10;;;;;;;5.10;4.15;;;12.80;91.30;;;;;;5023403;28;20079;-61
2021/10/13 04:55:36;;;;;;;5.40;3.70;;;12.80;91.30;;;;;;5020820;28;20180;-62
2021/10/13 04:58:01;;;;;;;7.35;3.60;;;12.80;91.30;;;;;;5020931;28;20120;-62
2021/10/13 05:00:27;;;;;;;6.40;3.30;;;12.80;91.30;;;;;;5025615;28;20435;-61
2021/10/13 05:02:53;;;;;;;6.43;3.70;;;12.80;91.30;;;;;;5025208;28;20025;-61
2021/10/13 05:05:18;;;;;;;6.25;3.75;;;12.80;91.30;;;;;;5019742;28;20487;-61
2021/10/13 05:07:44;;;;;;;5.80;3.22;;;12.90;91.30;;;;;;5022679;28;20112;-61
2021/10/13 05:10:09;;;;;;;4.10;3.33;;;12.70;91.30;;;;;;5020498;28;20342;-61
2021/10/13 05:12:35;;;;;;;4.93;3.50;;;12.70;91.20;;;;;;5023608;28;20045;-61
2021/10/13 05:15:01;;;;;;;5.20;3.10;;;12.70;91.20;;;;;;5008189;28;20176;-61
2021/10/13 05:17:26;;;;;;;4.60;3.15;;;12.70;91.20;;;;;;5008133;28;20025;-61
2021/10/13 05:19:52;;;;;;;4.22;3.10;;;12.70;91.20;;;;;;5023877;28;20113;-61
2021/10/13 05:22:17;;;;;;;4.28;3.00;;;12.70;91.20;;;;;;5022506;28;20034;-61
2021/10/13 05:24:43;;;;;;;3.38;2.67;;;12.60;91.20;;;;;;5020847;28;20517;-62
2021/10/13 05:27:08;;;;;;;4.70;2.80;;;12.60;91.20;;;;;;5023961;28;20029;-61
2021/10/13 05:29:34;;;;;;;6.45;3.13;;;12.60;91.20;;;;;;5025351;28;20230;-61
2021/10/13 05:31:59;;;;;;;3.88;2.85;;;12.60;91.20;;;;;;5025105;28;20033;-61
2021/10/13 05:34:25;;;;;;;4.78;2.90;;;12.60;91.20;;;;;;5022583;28;20037;-61
2021/10/13 05:36:50;;;;;;;4.35;3.05;;;12.60;91.20;;;;;;5020714;28;20037;-61
2021/10/13 05:39:16;;;;;;;4.55;3.10;;;12.60;91.10;;;;;;5022001;28;20420;-61
2021/10/13 05:41:41;;;;;;;5.47;3.08;;;12.60;91.20;;;;;;5023430;28;20040;-60
2021/10/13 05:44:07;;;;;;;3.97;2.90;;;12.60;91.20;;;;;;5024987;28;20104;-61
2021/10/13 05:46:33;;;;;;;3.78;2.65;;;12.60;91.20;;;;;;5022671;28;20405;-61
2021/10/13 05:48:58;;;;;;;3.92;2.88;;;12.60;91.10;;;;;;5021428;28;20405;-61
2021/10/13 05:51:24;;;;;;;3.78;2.60;;;12.60;91.10;;;;;;5024235;28;20049;-61
2021/10/13 05:53:49;;;;;;;3.97;2.88;;;12.50;91.10;;;;;;5023128;28;20227;-61
2021/10/13 05:56:14;;;;;;;3.60;2.70;;;12.50;91.10;;;;;;5023334;28;20127;-61
2021/10/13 05:58:41;;;;;;;4.95;2.80;;;12.50;91.00;;;;;;5022185;28;20080;-61
2021/10/13 06:01:06;;;;;;;4.45;2.90;;;12.50;91.00;;;;;;5022672;28;20029;-61
2021/10/13 06:03:32;;;;;;;5.15;2.72;;;12.50;91.00;;;;;;5016790;28;20144;-61
2021/10/13 06:05:57;;;;;;;3.80;2.50;;;12.50;91.00;;;;;;5021764;28;20069;-61
2021/10/13 06:08:23;;;;;;;23.55;3.90;;;12.50;91.00;;;;;;5026200;28;20047;-61
2021/10/13 06:10:49;;;;;;;28.08;4.47;;;12.50;91.00;;;;;;5023680;28;20637;-61
2021/10/13 06:13:14;;;;;;;17.73;3.95;;;12.50;90.90;;;;;;5025454;28;20029;-61
2021/10/13 06:15:40;;;;;;;39.58;4.47;;;12.40;90.90;;;;;;5024814;28;20100;-61
2021/10/13 06:18:11;;;;;;;47.80;6.78;;;12.40;90.90;;;;;;5022768;28;20049;-61
2021/10/13 06:20:37;;;;;;;36.08;5.13;;;12.40;91.00;;;;;;5024081;28;20044;-61
2021/10/13 06:23:03;;;;;;;34.40;4.55;;;12.40;91.00;;;;;;5023837;28;20421;-61
2021/10/13 06:25:28;;;;;;;39.40;5.53;;;12.40;90.90;;;;;;5019331;28;20033;-61
2021/10/13 06:27:54;;;;;;;35.75;5.53;;;12.50;91.00;;;;;;5019933;28;20620;-61
2021/10/13 06:30:19;;;;;;;23.15;4.43;;;12.50;90.80;;;;;;5022940;28;20049;-61
2021/10/13 06:32:45;;;;;;;49.28;6.43;;;12.40;90.80;;;;;;5019774;28;20048;-61
2021/10/13 06:35:10;;;;;;;47.35;6.10;;;12.40;90.80;;;;;;5022898;28;20033;-61
2021/10/13 06:37:36;;;;;;;41.60;6.38;;;12.50;90.80;;;;;;5022636;28;20029;-61
2021/10/13 06:40:02;;;;;;;33.97;5.25;;;12.40;90.70;;;;;;5022769;28;20037;-61
2021/10/13 06:42:27;;;;;;;44.42;5.63;;;12.40;90.70;;;;;;5016128;28;20042;-61
2021/10/13 06:44:53;;;;;;;43.42;6.90;;;12.40;90.70;;;;;;5021597;28;20036;-61
2021/10/13 06:47:18;;;;;;;51.83;5.95;;;12.40;90.70;;;;;;5016150;28;20037;-61
2021/10/13 06:49:44;;;;;;;41.72;5.32;;;12.40;90.60;;;;;;5019187;28;20196;-61
2021/10/13 06:52:09;;;;;;;54.08;5.90;;;12.40;90.50;;;;;;5018221;28;20094;-61
2021/10/13 06:54:35;;;;;;;33.05;5.55;;;12.40;90.50;;;;;;5014314;28;20112;-61
2021/10/13 06:57:00;;;;;;;43.45;5.28;;;12.40;90.40;;;;;;5017955;28;20073;-61
2021/10/13 06:59:26;;;;;;;45.15;5.68;;;12.40;90.40;;;;;;5024713;28;20029;-61
2021/10/13 07:01:52;;;;;;;39.97;5.70;;;12.40;90.40;;;;;;5027418;28;20350;-62
2021/10/13 07:04:17;;;;;;;37.80;5.35;;;12.40;90.40;;;;;;5025535;28;20515;-61
2021/10/13 07:06:43;;;;;;;39.50;5.13;;;12.40;90.40;;;;;;5022869;28;20033;-60
2021/10/13 07:09:08;;;;;;;37.70;5.45;;;12.40;90.40;;;;;;5026320;28;20037;-61
2021/10/13 07:11:34;;;;;;;41.92;5.45;;;12.40;90.40;;;;;;5025605;28;20129;-61
2021/10/13 07:13:59;;;;;;;38.08;6.30;;;12.40;90.40;;;;;;5026613;28;20025;-61
2021/10/13 07:16:25;;;;;;;117.90;14.15;;;12.40;90.40;;;;;;5027352;28;20032;-60
2021/10/13 07:18:50;;;;;;;55.22;7.47;;;12.40;90.30;;;;;;5026926;28;20029;-61
2021/10/13 07:21:16;;;;;;;47.13;6.68;;;12.40;90.30;;;;;;5025459;28;20477;-61
2021/10/13 07:23:41;;;;;;;52.20;7.18;;;12.40;90.30;;;;;;5025833;28;20710;-61
2021/10/13 07:26:07;;;;;;;36.60;7.28;;;12.40;90.20;;;;;;5023374;28;20025;-61
2021/10/13 07:28:38;;;;;;;36.33;6.15;;;12.40;90.20;;;;;;5024495;28;20519;-61
2021/10/13 07:31:04;;;;;;;44.03;6.00;;;12.40;90.20;;;;;;5023197;28;20056;-60
2021/10/13 07:33:29;;;;;;;41.33;5.72;;;12.40;90.20;;;;;;5006185;28;20060;-61
2021/10/13 07:35:55;;;;;;;35.00;5.47;;;12.30;90.10;;;;;;5024390;28;20575;-61
2021/10/13 07:38:21;;;;;;;35.83;6.43;;;12.40;90.10;;;;;;5021392;28;20029;-61
2021/10/13 07:40:48;;;;;;;46.30;6.38;;;12.40;90.00;;;;;;5023726;28;20053;-61
2021/10/13 07:43:13;;;;;;;53.33;6.10;;;12.40;90.00;;;;;;5023736;28;20038;-60
2021/10/13 07:45:39;;;;;;;41.08;6.03;;;12.40;90.10;;;;;;5023336;28;20044;-61
2021/10/13 07:48:05;;;;;;;37.92;5.88;;;12.40;90.00;;;;;;5004551;28;20038;-61
2021/10/13 07:50:30;;;;;;;63.22;8.48;;;12.40;89.70;;;;;;5023479;28;20087;-61
2021/10/13 07:52:56;;;;;;;40.28;6.78;;;12.40;89.80;;;;;;5021927;28;20081;-61
2021/10/13 07:55:21;;;;;;;46.33;6.38;;;12.40;89.80;;;;;;5023031;28;20029;-61
2021/10/13 07:57:47;;;;;;;62.08;7.07;;;12.40;89.80;;;;;;5025315;28;20507;-61
2021/10/13 08:00:14;;;;;;;33.47;6.22;;;12.30;89.70;;;;;;5020741;28;20032;-60
2021/10/13 08:02:44;;;;;;;75.15;8.73;;;12.30;89.70;;;;;;5024138;28;20021;-61
2021/10/13 08:05:09;;;;;;;77.85;8.18;;;12.30;89.70;;;;;;5004013;28;20033;-61
2021/10/13 08:07:34;;;;;;;43.00;8.15;;;12.30;89.70;;;;;;5023683;28;20087;-61
2021/10/13 08:10:00;;;;;;;63.90;7.72;;;12.40;89.70;;;;;;5021929;28;20096;-61
2021/10/13 08:12:25;;;;;;;72.90;8.85;;;12.40;89.70;;;;;;5021121;28;20491;-61
2021/10/13 08:14:51;;;;;;;66.50;7.55;;;12.30;89.70;;;;;;5021314;28;20088;-61
2021/10/13 08:17:16;;;;;;;63.55;9.50;;;12.30;89.60;;;;;;5018657;28;20133;-60
2021/10/13 08:19:42;;;;;;;62.03;7.63;;;12.40;89.60;;;;;;5000841;28;20064;-61
2021/10/13 08:22:07;;;;;;;63.40;7.78;;;12.40;89.60;;;;;;5023934;28;20065;-61
2021/10/13 08:24:33;;;;;;;72.88;8.68;;;12.40;89.50;;;;;;5017103;28;20491;-61
2021/10/13 08:26:59;;;;;;;59.08;7.82;;;12.30;89.40;;;;;;5023468;28;20044;-62
2021/10/13 08:29:25;;;;;;;61.55;7.53;;;12.30;89.20;;;;;;5023041;28;20075;-61
2021/10/13 08:31:50;;;;;;;51.55;7.72;;;12.40;89.20;;;;;;5020627;28;20044;-61
2021/10/13 08:34:16;;;;;;;54.45;8.13;;;12.40;89.30;;;;;;5020094;28;20029;-61
2021/10/13 08:36:41;;;;;;;52.28;7.78;;;12.40;89.10;;;;;;5020270;28;20026;-61
2021/10/13 08:39:07;;;;;;;63.42;8.10;;;12.30;88.70;;;;;;5018983;28;20034;-60
2021/10/13 08:41:32;;;;;;;59.50;7.85;;;12.40;88.80;;;;;;5018899;28;20047;-60
2021/10/13 08:43:58;;;;;;;57.83;8.57;;;12.40;88.40;;;;;;5022199;28;20065;-60
2021/10/13 08:46:23;;;;;;;70.35;9.05;;;12.40;88.10;;;;;;5020854;28;20116;-60
2021/10/13 08:48:49;;;;;;;65.25;7.45;;;12.40;87.90;;;;;;5019216;28;20112;-60
2021/10/13 08:51:14;;;;;;;54.92;7.63;;;12.30;87.70;;;;;;5018819;28;20033;-61
2021/10/13 08:53:40;;;;;;;80.50;8.50;;;12.40;87.60;;;;;;5016583;28;20132;-61
2021/10/13 08:56:05;;;;;;;77.45;7.97;;;12.40;87.50;;;;;;5016275;28;20024;-60
2021/10/13 08:58:34;;;;;;;62.00;7.28;;;12.40;87.20;;;;;;5017253;28;20029;-61
2021/10/13 09:01:02;;;;;;;53.30;6.82;;;12.40;87.20;;;;;;5002017;28;20041;-61
2021/10/13 09:03:32;;;;;;;54.28;7.70;;;12.40;87.20;;;;;;5019996;28;20036;-60
2021/10/13 09:05:59;;;;;;;50.72;6.45;;;12.40;87.10;;;;;;4998605;28;20026;-60
2021/10/13 09:08:25;;;;;;;70.32;8.55;;;12.40;86.80;;;;;;5003051;28;20104;-61
2021/10/13 09:10:55;;;;;;;70.82;8.80;;;12.40;86.70;;;;;;5018365;28;20385;-60
2021/10/13 09:13:21;;;;;;;81.03;9.68;;;12.40;86.40;;;;;;5020899;28;20416;-61
2021/10/13 09:15:48;;;;;;;63.97;8.35;;;12.40;86.20;;;;;;5021845;28;20022;-60
2021/10/13 09:18:14;;;;;;;81.80;9.45;;;12.40;86.10;;;;;;5004922;28;20113;-61
2021/10/13 09:20:40;;;;;;;72.45;8.40;;;12.40;86.10;;;;;;5001258;28;20041;-61
2021/10/13 09:23:16;;;;;;;56.35;7.20;;;12.50;86.10;;;;;;5017755;28;20593;-60
2021/10/13 09:25:42;;;;;;;59.03;7.28;;;12.50;86.10;;;;;;5020573;28;20029;-61
2021/10/13 09:28:07;;;;;;;57.58;8.05;;;12.50;86.00;;;;;;5019311;28;20653;-60
2021/10/13 09:30:39;;;;;;;53.25;7.80;;;12.60;85.90;;;;;;5002429;28;20044;-60
2021/10/13 09:33:12;;;;;;;51.13;7.22;;;12.60;85.70;;;;;;5023553;28;20025;-61
2021/10/13 09:35:48;;;;;;;50.72;6.85;;;12.60;85.50;;;;;;4998197;28;20025;-60
2021/10/13 09:38:19;;;;;;;56.75;7.45;;;12.60;85.40;;;;;;5013506;28;20509;-61
2021/10/13 09:40:44;;;;;;;63.45;8.73;;;12.70;85.30;;;;;;5010984;28;20128;-60
2021/10/13 09:43:35;;;;;;;80.72;8.85;;;12.60;85.10;;;;;;5016716;28;20059;-62
2021/10/13 09:46:23;;;;;;;62.72;7.13;;;12.70;85.10;;;;;;5034864;28;20087;-61
2021/10/13 09:48:57;;;;;;;84.35;9.15;;;12.70;85.00;;;;;;5014446;28;20037;-60
2021/10/13 09:51:23;;;;;;;71.13;9.60;;;12.70;84.90;;;;;;5015098;28;20014;-61
2021/10/13 09:53:51;;;;;;;49.28;7.07;;;12.80;84.90;;;;;;5011932;28;20025;-61
2021/10/13 09:56:32;;;;;;;50.65;7.50;;;12.80;84.60;;;;;;4990755;28;20033;-60
2021/10/13 09:59:11;;;;;;;68.50;8.70;;;12.80;84.60;;;;;;5015705;28;20102;-61
2021/10/13 10:01:37;;;;;;;118.60;11.63;;;12.80;84.60;;;;;;5012476;28;20535;-61
2021/10/13 10:04:03;;;;;;;104.03;10.70;;;12.80;84.10;;;;;;4998173;28;20029;-60
2021/10/13 10:06:29;;;;;;;116.63;12.35;;;12.90;84.40;;;;;;4995204;28;20037;-60
2021/10/13 10:08:54;;;;;;;112.65;11.85;;;12.90;84.60;;;;;;5009926;28;20029;-60
2021/10/13 10:11:40;;;;;;;101.43;11.32;;;12.90;84.00;;;;;;5019935;28;20037;-60
2021/10/13 10:14:32;;;;;;;56.22;7.95;;;12.90;83.90;;;;;;5014830;28;20029;-60
2021/10/13 10:16:58;;;;;;;83.65;9.35;;;12.90;84.40;;;;;;5010106;28;20038;-60
2021/10/13 10:19:25;;;;;;;88.28;10.32;;;12.90;83.90;;;;;;4996613;28;20156;-60
2021/10/13 10:22:18;;;;;;;78.47;8.82;;;12.90;83.80;;;;;;5015202;28;20117;-60
2021/10/13 10:24:46;;;;;;;83.00;11.55;;;13.00;83.80;;;;;;4999578;28;20051;-61
2021/10/13 10:27:38;;;;;;;61.60;8.82;;;13.00;83.70;;;;;;5014402;28;20025;-60
2021/10/13 10:30:10;;;;;;;53.40;7.47;;;13.00;83.50;;;;;;5014761;28;20370;-60
2021/10/13 10:32:36;;;;;;;57.75;8.27;;;13.20;83.50;;;;;;5017907;28;20154;-60
2021/10/13 10:35:04;;;;;;;71.38;8.65;;;13.10;83.30;;;;;;5016729;28;20537;-61
2021/10/13 10:37:39;;;;;;;76.22;8.90;;;13.10;83.20;;;;;;5015350;28;20040;-61
2021/10/13 10:40:10;;;;;;;84.55;9.25;;;13.10;83.20;;;;;;5019497;28;20119;-60
2021/10/13 10:42:52;;;;;;;61.20;9.32;;;13.10;83.00;;;;;;5018708;28;20052;-60
2021/10/13 10:45:26;;;;;;;101.03;11.23;;;13.10;83.00;;;;;;5020425;28;20091;-60
2021/10/13 10:47:56;;;;;;;71.75;9.45;;;13.20;83.10;;;;;;5022018;28;20512;-60
2021/10/13 10:50:36;;;;;;;81.38;10.07;;;13.20;82.70;;;;;;5014213;28;20037;-60
2021/10/13 10:53:36;;;;;;;77.75;9.68;;;13.20;82.50;;;;;;5020223;28;20021;-60
2021/10/13 10:56:15;;;;;;;97.68;12.05;;;13.20;82.40;;;;;;5017917;28;20137;-60
2021/10/13 10:58:45;;;;;;;110.60;12.68;;;13.20;82.50;;;;;;5016041;28;20025;-60
2021/10/13 11:01:15;;;;;;;118.53;12.82;;;13.30;82.30;;;;;;5003348;28;20125;-60
2021/10/13 11:03:41;;;;;;;140.43;13.73;;;13.30;82.20;;;;;;5003165;28;20028;-60
2021/10/13 11:06:13;;;;;;;98.85;11.27;;;13.30;82.30;;;;;;5015720;28;20067;-61
2021/10/13 11:08:54;;;;;;;122.18;16.27;;;13.40;82.10;;;;;;5018376;28;20046;-60
2021/10/13 11:11:20;;;;;;;94.15;12.23;;;13.40;82.00;;;;;;5019799;28;20171;-61
2021/10/13 11:14:06;;;;;;;72.53;10.60;;;13.30;81.70;;;;;;5020887;28;20556;-62
2021/10/13 11:16:32;;;;;;;84.35;10.75;;;13.40;81.80;;;;;;5022114;28;20125;-60
2021/10/13 11:19:15;;;;;;;126.50;11.75;;;13.40;81.40;;;;;;5017957;28;20040;-60
2021/10/13 11:21:41;;;;;;;96.95;11.20;;;13.40;81.20;;;;;;5015914;28;20048;-61
2021/10/13 11:24:07;;;;;;;108.47;11.93;;;13.40;81.20;;;;;;5018883;28;20033;-60
2021/10/13 11:26:32;;;;;;;100.03;12.38;;;13.50;81.00;;;;;;5019557;28;20615;-60
2021/10/13 11:28:58;;;;;;;78.50;10.88;;;13.50;80.90;;;;;;5034195;28;20432;-61
2021/10/13 11:31:23;;;;;;;105.65;13.23;;;13.50;80.90;;;;;;5021407;28;20096;-60
2021/10/13 11:33:49;;;;;;;132.65;12.75;;;13.50;81.00;;;;;;5021802;28;20215;-60
2021/10/13 11:36:14;;;;;;;84.40;10.35;;;13.30;80.80;;;;;;5021000;28;20041;-60
2021/10/13 11:38:40;;;;;;;77.07;9.23;;;13.50;80.90;;;;;;5018625;28;20709;-60
2021/10/13 11:41:11;;;;;;;118.07;14.73;;;13.50;80.80;;;;;;5019718;28;20037;-60
2021/10/13 11:43:37;;;;;;;115.60;12.27;;;13.50;80.40;;;;;;5022166;28;20038;-61
2021/10/13 11:46:03;;;;;;;103.85;11.30;;;13.50;80.10;;;;;;5018536;28;20026;-61
2021/10/13 11:48:30;;;;;;;78.22;10.50;;;13.60;80.10;;;;;;5021663;28;20107;-60
2021/10/13 11:50:58;;;;;;;105.93;12.18;;;13.60;79.90;;;;;;5018701;28;20079;-60
2021/10/13 11:53:23;;;;;;;218.23;20.38;;;13.60;79.60;;;;;;5023091;28;20033;-60
2021/10/13 11:55:49;;;;;;;86.72;11.00;;;13.60;79.60;;;;;;5006751;28;20041;-60
2021/10/13 11:58:25;;;;;;;101.95;10.65;;;13.60;79.30;;;;;;5024187;28;20021;-60
2021/10/13 12:00:50;;;;;;;68.13;9.25;;;13.60;79.30;;;;;;5021242;28;20441;-60
2021/10/13 12:03:16;;;;;;;53.00;7.30;;;13.60;79.10;;;;;;5022022;28;20041;-60
2021/10/13 12:05:42;;;;;;;64.95;7.45;;;13.60;79.20;;;;;;5017486;28;20381;-60
2021/10/13 12:08:27;;;;;;;60.63;8.15;;;13.60;79.30;;;;;;5020573;28;20026;-60
2021/10/13 12:10:54;;;;;;;68.55;7.43;;;13.70;79.00;;;;;;5020195;28;20055;-60
2021/10/13 12:13:23;;;;;;;79.40;9.68;;;13.70;78.80;;;;;;5015889;28;20036;-60
2021/10/13 12:15:48;;;;;;;63.47;8.55;;;13.70;78.60;;;;;;5012606;28;20076;-60
2021/10/13 12:18:18;;;;;;;70.15;8.00;;;13.70;78.60;;;;;;5014840;28;20045;-60
2021/10/13 12:20:49;;;;;;;68.43;7.68;;;13.70;78.50;;;;;;5033244;28;20033;-60
2021/10/13 12:23:18;;;;;;;68.15;8.65;;;13.80;78.50;;;;;;5017876;28;20087;-60
2021/10/13 12:25:43;;;;;;;83.07;8.98;;;13.70;78.20;;;;;;5017854;28;20428;-60
2021/10/13 12:28:28;;;;;;;70.63;8.35;;;13.80;78.30;;;;;;5015870;28;20045;-60
2021/10/13 12:31:16;;;;;;;77.40;8.45;;;13.80;78.10;;;;;;4995422;28;20030;-60
2021/10/13 12:33:50;;;;;;;112.28;13.85;;;13.80;78.00;;;;;;5010937;28;20029;-60
2021/10/13 12:36:19;;;;;;;116.95;12.05;;;13.80;78.20;;;;;;5016555;28;20025;-61
2021/10/13 12:38:58;;;;;;;108.05;11.55;;;13.80;77.70;;;;;;5018610;28;20035;-61
2021/10/13 12:41:43;;;;;;;118.90;12.93;;;13.80;77.30;;;;;;5014798;28;21791;-61
2021/10/13 12:44:28;;;;;;;83.00;9.97;;;13.80;77.40;;;;;;5020507;28;20034;-60